MON3558 EGCC-LEMH
Flight info
| Callsign | MON3558 |
|---|---|
| Flight time | 2h 13m |
| Altitude | 23000 |
| Route | LISTO P18 TELBA/N0461F390 L151 BRUMI/N0464F410 L151 KIDLI UN859 SOPIL DCT BALAN DCT EVPOK DCT NARAK DCT GAI DCT LOMRA DCT ROCAN DCT GEANT DCT GIR DCT SALON N727 SARGO |
| Aircraft | A332/H-SDE3GHIJ2J3J5M1RVWXY/LB2D1 |
Departure
| Time | 2026-04-30 17:51 |
|---|---|
| Airport | Manchester Airport (EGCC) |
Arrival
| Time | 2026-04-30 20:05 |
|---|---|
| Airport | Menorca Airport (LEMH) |
| Time | Latitude | Longitude | Altitude | Speed | Heading |
|---|---|---|---|---|---|
| 2026-04-30 17:39 | 53.36979 | -2.28799 | 259 ft | 0 kts | 225° |
| 2026-04-30 17:41 | 53.36690 | -2.28989 | 259 ft | 10 kts | 136° |
| 2026-04-30 17:42 | 53.36585 | -2.28785 | 259 ft | 13 kts | 124° |
| 2026-04-30 17:42 | 53.36397 | -2.28491 | 259 ft | 11 kts | 161° |
| 2026-04-30 17:43 | 53.36257 | -2.28322 | 259 ft | 14 kts | 135° |
| 2026-04-30 17:44 | 53.36028 | -2.27954 | 259 ft | 11 kts | 138° |
| 2026-04-30 17:44 | 53.35754 | -2.27874 | 251 ft | 20 kts | 186° |
| 2026-04-30 17:46 | 53.35279 | -2.28239 | 241 ft | 21 kts | 212° |
| 2026-04-30 17:47 | 53.34855 | -2.29013 | 229 ft | 10 kts | 221° |
| 2026-04-30 17:48 | 53.34823 | -2.29047 | 231 ft | 0 kts | 205° |
| 2026-04-30 17:48 | 53.34821 | -2.29048 | 231 ft | 3 kts | 204° |
| 2026-04-30 17:49 | 53.34718 | -2.28858 | 228 ft | 0 kts | 52° |
| 2026-04-30 17:50 | 53.35919 | -2.26381 | 415 ft | 171 kts | 53° |
| 2026-04-30 17:51 | 53.37518 | -2.20733 | 2391 ft | 209 kts | 108° |
| 2026-04-30 17:52 | 53.33653 | -2.16765 | 4509 ft | 241 kts | 177° |
| 2026-04-30 17:53 | 53.24936 | -2.18210 | 9301 ft | 260 kts | 184° |
| 2026-04-30 17:54 | 53.17003 | -2.19473 | 11550 ft | 325 kts | 184° |
| 2026-04-30 17:55 | 53.07688 | -2.20940 | 14764 ft | 344 kts | 183° |
| 2026-04-30 17:56 | 52.97909 | -2.22466 | 17749 ft | 360 kts | 184° |
| 2026-04-30 17:57 | 52.90341 | -2.23640 | 19742 ft | 370 kts | 183° |
| 2026-04-30 17:58 | 52.82624 | -2.25621 | 21679 ft | 379 kts | 189° |
| 2026-04-30 17:59 | 52.72202 | -2.29523 | 24022 ft | 388 kts | 186° |
| 2026-04-30 18:00 | 52.61693 | -2.26663 | 25838 ft | 396 kts | 152° |
| 2026-04-30 18:00 | 52.54668 | -2.19218 | 27210 ft | 405 kts | 147° |
| 2026-04-30 18:01 | 52.49983 | -2.13943 | 28074 ft | 411 kts | 147° |
| 2026-04-30 18:02 | 52.42759 | -2.06009 | 29301 ft | 421 kts | 148° |
| 2026-04-30 18:02 | 52.35380 | -1.98027 | 30460 ft | 430 kts | 148° |
| 2026-04-30 18:03 | 52.27820 | -1.89889 | 31489 ft | 438 kts | 148° |
| 2026-04-30 18:04 | 52.20171 | -1.81681 | 32864 ft | 437 kts | 148° |
| 2026-04-30 18:05 | 52.10031 | -1.70853 | 34601 ft | 435 kts | 148° |
| 2026-04-30 18:06 | 51.99868 | -1.60043 | 35854 ft | 437 kts | 147° |
| 2026-04-30 18:07 | 51.89671 | -1.49289 | 37091 ft | 439 kts | 147° |
| 2026-04-30 18:08 | 51.81962 | -1.41193 | 37972 ft | 441 kts | 147° |
| 2026-04-30 18:09 | 51.70874 | -1.32855 | 39062 ft | 442 kts | 161° |
| 2026-04-30 18:10 | 51.59087 | -1.26945 | 39896 ft | 444 kts | 162° |
| 2026-04-30 18:11 | 51.47429 | -1.20628 | 40708 ft | 445 kts | 156° |
| 2026-04-30 18:11 | 51.38901 | -1.14470 | 41050 ft | 452 kts | 155° |
| 2026-04-30 18:12 | 51.30315 | -1.08129 | 41170 ft | 451 kts | 155° |
| 2026-04-30 18:13 | 51.24613 | -1.03948 | 41156 ft | 450 kts | 156° |
| 2026-04-30 18:14 | 51.10409 | -0.93616 | 41163 ft | 450 kts | 156° |
| 2026-04-30 18:15 | 50.93369 | -0.81311 | 41155 ft | 451 kts | 156° |
| 2026-04-30 18:16 | 50.82248 | -0.72337 | 41159 ft | 448 kts | 149° |
| 2026-04-30 18:17 | 50.76983 | -0.67049 | 41144 ft | 448 kts | 148° |
| 2026-04-30 18:18 | 50.69114 | -0.59012 | 41137 ft | 452 kts | 148° |
| 2026-04-30 18:18 | 50.63806 | -0.53624 | 41156 ft | 455 kts | 148° |
| 2026-04-30 18:19 | 50.58481 | -0.48245 | 41127 ft | 454 kts | 148° |
| 2026-04-30 18:19 | 50.53151 | -0.42886 | 41145 ft | 456 kts | 148° |
| 2026-04-30 18:20 | 50.47789 | -0.37506 | 41143 ft | 455 kts | 148° |
| 2026-04-30 18:20 | 50.42499 | -0.32212 | 41146 ft | 454 kts | 148° |
| 2026-04-30 18:21 | 50.37182 | -0.26906 | 41122 ft | 452 kts | 148° |
| 2026-04-30 18:21 | 50.31856 | -0.21610 | 41138 ft | 455 kts | 148° |
| 2026-04-30 18:22 | 50.26506 | -0.16299 | 41121 ft | 454 kts | 148° |
| 2026-04-30 18:22 | 50.18474 | -0.08356 | 41116 ft | 457 kts | 148° |
| 2026-04-30 18:23 | 50.13084 | -0.03055 | 41112 ft | 458 kts | 149° |
| 2026-04-30 18:23 | 50.07309 | 0.00944 | 41126 ft | 457 kts | 163° |
| 2026-04-30 18:24 | 49.98125 | 0.04798 | 41123 ft | 454 kts | 166° |
| 2026-04-30 18:25 | 49.91993 | 0.07137 | 41119 ft | 455 kts | 166° |
| 2026-04-30 18:25 | 49.82745 | 0.10709 | 41114 ft | 458 kts | 166° |
| 2026-04-30 18:26 | 49.74531 | 0.13913 | 41111 ft | 456 kts | 166° |
| 2026-04-30 18:27 | 49.65277 | 0.17543 | 41106 ft | 458 kts | 165° |
| 2026-04-30 18:28 | 49.56017 | 0.21281 | 41102 ft | 458 kts | 165° |
| 2026-04-30 18:28 | 49.46770 | 0.25004 | 41129 ft | 458 kts | 165° |
| 2026-04-30 18:29 | 49.34471 | 0.29917 | 41137 ft | 457 kts | 165° |
| 2026-04-30 18:30 | 49.22172 | 0.34995 | 41124 ft | 459 kts | 164° |
| 2026-04-30 18:31 | 49.12988 | 0.38883 | 41114 ft | 457 kts | 164° |
| 2026-04-30 18:32 | 49.03786 | 0.42743 | 41099 ft | 458 kts | 164° |
| 2026-04-30 18:33 | 48.94529 | 0.46604 | 41106 ft | 460 kts | 165° |
| 2026-04-30 18:33 | 48.85252 | 0.50459 | 41105 ft | 460 kts | 165° |
| 2026-04-30 18:34 | 48.76012 | 0.54248 | 41094 ft | 461 kts | 165° |
| 2026-04-30 18:35 | 48.69764 | 0.56699 | 41111 ft | 460 kts | 166° |
| 2026-04-30 18:35 | 48.63594 | 0.59097 | 41105 ft | 460 kts | 165° |
| 2026-04-30 18:36 | 48.54273 | 0.62725 | 41106 ft | 462 kts | 165° |
| 2026-04-30 18:37 | 48.44975 | 0.66448 | 41105 ft | 460 kts | 165° |
| 2026-04-30 18:37 | 48.38780 | 0.68979 | 41107 ft | 461 kts | 165° |
| 2026-04-30 18:38 | 48.32575 | 0.71502 | 41108 ft | 462 kts | 165° |
| 2026-04-30 18:38 | 48.26358 | 0.74017 | 41104 ft | 461 kts | 165° |
| 2026-04-30 18:39 | 48.20154 | 0.76486 | 41106 ft | 462 kts | 165° |
| 2026-04-30 18:39 | 48.13956 | 0.78919 | 41103 ft | 464 kts | 165° |
| 2026-04-30 18:40 | 48.07719 | 0.81360 | 41102 ft | 464 kts | 165° |
| 2026-04-30 18:40 | 48.01473 | 0.83803 | 41101 ft | 463 kts | 165° |
| 2026-04-30 18:41 | 47.95224 | 0.86242 | 41105 ft | 464 kts | 165° |
| 2026-04-30 18:41 | 47.88965 | 0.88680 | 41102 ft | 465 kts | 165° |
| 2026-04-30 18:42 | 47.82702 | 0.91113 | 41099 ft | 465 kts | 166° |
| 2026-04-30 18:42 | 47.73350 | 0.94735 | 41106 ft | 466 kts | 166° |
| 2026-04-30 18:45 | 47.41796 | 1.06190 | 41111 ft | 467 kts | 178° |
| 2026-04-30 18:45 | 47.38545 | 1.06345 | 41111 ft | 467 kts | 179° |
| 2026-04-30 18:46 | 47.32049 | 1.06293 | 41113 ft | 467 kts | 181° |
| 2026-04-30 18:46 | 47.25554 | 1.06087 | 41117 ft | 467 kts | 182° |
| 2026-04-30 18:47 | 47.19056 | 1.05892 | 41119 ft | 467 kts | 181° |
| 2026-04-30 18:47 | 47.12602 | 1.05728 | 41120 ft | 467 kts | 181° |
| 2026-04-30 18:48 | 47.06111 | 1.05577 | 41122 ft | 467 kts | 181° |
| 2026-04-30 18:48 | 46.99615 | 1.05395 | 41125 ft | 466 kts | 182° |
| 2026-04-30 18:49 | 46.93119 | 1.05119 | 41120 ft | 467 kts | 182° |
| 2026-04-30 18:49 | 46.86625 | 1.04826 | 41122 ft | 467 kts | 182° |
| 2026-04-30 18:50 | 46.80130 | 1.04541 | 41122 ft | 467 kts | 182° |
| 2026-04-30 18:50 | 46.73634 | 1.04263 | 41123 ft | 467 kts | 182° |
| 2026-04-30 18:51 | 46.67185 | 1.03990 | 41125 ft | 467 kts | 182° |
| 2026-04-30 18:51 | 46.60692 | 1.03716 | 41126 ft | 467 kts | 182° |
| 2026-04-30 18:52 | 46.54197 | 1.03468 | 41129 ft | 467 kts | 180° |
| 2026-04-30 18:52 | 46.47758 | 1.04633 | 41134 ft | 467 kts | 169° |
| 2026-04-30 18:53 | 46.41402 | 1.06645 | 41133 ft | 467 kts | 168° |
| 2026-04-30 18:53 | 46.35078 | 1.08807 | 41131 ft | 468 kts | 168° |
| 2026-04-30 18:54 | 46.28736 | 1.10963 | 41142 ft | 467 kts | 168° |
| 2026-04-30 18:54 | 46.22404 | 1.13080 | 41152 ft | 467 kts | 168° |
| 2026-04-30 18:55 | 46.16065 | 1.15182 | 41154 ft | 467 kts | 168° |
| 2026-04-30 18:55 | 46.06578 | 1.18315 | 41155 ft | 467 kts | 168° |
| 2026-04-30 18:56 | 45.97055 | 1.21450 | 41157 ft | 468 kts | 168° |
| 2026-04-30 18:57 | 45.87564 | 1.24565 | 41157 ft | 468 kts | 168° |
| 2026-04-30 18:57 | 45.81207 | 1.26645 | 41157 ft | 468 kts | 168° |
| 2026-04-30 18:58 | 45.71668 | 1.29758 | 41159 ft | 468 kts | 168° |
| 2026-04-30 18:59 | 45.62131 | 1.32859 | 41162 ft | 469 kts | 168° |
| 2026-04-30 19:00 | 45.49410 | 1.36978 | 41159 ft | 469 kts | 169° |
| 2026-04-30 19:01 | 45.36675 | 1.41081 | 41151 ft | 469 kts | 169° |
| 2026-04-30 19:02 | 45.27163 | 1.44135 | 41153 ft | 469 kts | 169° |
| 2026-04-30 19:03 | 45.14418 | 1.48210 | 41155 ft | 469 kts | 169° |
| 2026-04-30 19:04 | 45.01656 | 1.52271 | 41158 ft | 470 kts | 169° |
| 2026-04-30 19:05 | 44.88866 | 1.56324 | 41148 ft | 472 kts | 170° |
| 2026-04-30 19:06 | 44.76077 | 1.60357 | 41151 ft | 472 kts | 170° |
| 2026-04-30 19:06 | 44.66452 | 1.63381 | 41149 ft | 472 kts | 170° |
| 2026-04-30 19:07 | 44.56858 | 1.66385 | 41148 ft | 472 kts | 170° |
| 2026-04-30 19:08 | 44.44028 | 1.70386 | 41159 ft | 472 kts | 170° |
| 2026-04-30 19:09 | 44.34393 | 1.73379 | 41157 ft | 473 kts | 171° |
| 2026-04-30 19:09 | 44.27956 | 1.75301 | 41157 ft | 473 kts | 173° |
| 2026-04-30 19:10 | 44.14973 | 1.78162 | 41154 ft | 472 kts | 175° |
| 2026-04-30 19:11 | 44.05277 | 1.80244 | 41157 ft | 472 kts | 174° |
| 2026-04-30 19:12 | 43.98792 | 1.81666 | 41153 ft | 472 kts | 175° |
| 2026-04-30 19:12 | 43.92278 | 1.82875 | 41157 ft | 470 kts | 179° |
| 2026-04-30 19:13 | 43.79231 | 1.84043 | 41148 ft | 469 kts | 180° |
| 2026-04-30 19:14 | 43.72706 | 1.84624 | 41152 ft | 469 kts | 180° |
| 2026-04-30 19:14 | 43.66192 | 1.85244 | 41151 ft | 469 kts | 180° |
| 2026-04-30 19:15 | 43.59717 | 1.85873 | 41141 ft | 469 kts | 180° |
| 2026-04-30 19:15 | 43.49940 | 1.86817 | 41151 ft | 469 kts | 180° |
| 2026-04-30 19:16 | 43.44522 | 1.87337 | 41146 ft | 469 kts | 180° |
| 2026-04-30 19:17 | 43.34748 | 1.88274 | 41147 ft | 470 kts | 180° |
| 2026-04-30 19:17 | 43.24963 | 1.89209 | 41150 ft | 470 kts | 180° |
| 2026-04-30 19:18 | 43.15169 | 1.90145 | 41148 ft | 470 kts | 180° |
| 2026-04-30 19:19 | 43.08648 | 1.90766 | 41150 ft | 470 kts | 180° |
| 2026-04-30 19:19 | 42.98864 | 1.91693 | 41135 ft | 470 kts | 180° |
| 2026-04-30 19:20 | 42.92335 | 1.92310 | 41152 ft | 470 kts | 180° |
| 2026-04-30 19:21 | 42.82593 | 1.93230 | 41152 ft | 469 kts | 180° |
| 2026-04-30 19:22 | 42.69584 | 1.95125 | 41159 ft | 476 kts | 167° |
| 2026-04-30 19:22 | 42.60863 | 2.01767 | 41164 ft | 487 kts | 145° |
| 2026-04-30 19:23 | 42.53050 | 2.10595 | 41167 ft | 490 kts | 143° |
| 2026-04-30 19:24 | 42.45228 | 2.19508 | 41171 ft | 489 kts | 143° |
| 2026-04-30 19:25 | 42.32089 | 2.34177 | 41165 ft | 490 kts | 144° |
| 2026-04-30 19:26 | 42.21543 | 2.45886 | 41151 ft | 491 kts | 144° |
| 2026-04-30 19:27 | 42.13658 | 2.54607 | 41144 ft | 490 kts | 144° |
| 2026-04-30 19:28 | 42.05740 | 2.63334 | 41134 ft | 490 kts | 144° |
| 2026-04-30 19:29 | 41.95158 | 2.74953 | 41112 ft | 491 kts | 144° |
| 2026-04-30 19:30 | 41.84247 | 2.85812 | 41131 ft | 488 kts | 148° |
| 2026-04-30 19:31 | 41.73128 | 2.96283 | 41116 ft | 488 kts | 148° |
| 2026-04-30 19:31 | 41.64823 | 3.04169 | 41119 ft | 488 kts | 148° |
| 2026-04-30 19:32 | 41.59280 | 3.09425 | 41156 ft | 488 kts | 148° |
| 2026-04-30 19:32 | 41.56518 | 3.12040 | 40937 ft | 486 kts | 148° |
| 2026-04-30 19:32 | 41.53760 | 3.14648 | 40469 ft | 485 kts | 148° |
| 2026-04-30 19:33 | 41.51010 | 3.17245 | 39907 ft | 485 kts | 148° |
| 2026-04-30 19:33 | 41.48229 | 3.19793 | 39379 ft | 484 kts | 150° |
| 2026-04-30 19:33 | 41.45423 | 3.22190 | 38834 ft | 484 kts | 152° |
| 2026-04-30 19:33 | 41.42558 | 3.24541 | 38200 ft | 483 kts | 153° |
| 2026-04-30 19:34 | 41.39681 | 3.26864 | 37640 ft | 481 kts | 153° |
| 2026-04-30 19:34 | 41.36831 | 3.29160 | 37095 ft | 479 kts | 153° |
| 2026-04-30 19:34 | 41.31138 | 3.33772 | 35951 ft | 479 kts | 153° |
| 2026-04-30 19:35 | 41.28294 | 3.36088 | 35322 ft | 480 kts | 153° |
| 2026-04-30 19:35 | 41.25444 | 3.38413 | 34655 ft | 481 kts | 153° |
| 2026-04-30 19:35 | 41.22583 | 3.40748 | 33860 ft | 484 kts | 153° |
| 2026-04-30 19:35 | 41.19702 | 3.43099 | 32936 ft | 488 kts | 153° |
| 2026-04-30 19:36 | 41.16799 | 3.45464 | 32053 ft | 490 kts | 153° |
| 2026-04-30 19:36 | 41.13886 | 3.47834 | 31143 ft | 493 kts | 153° |
| 2026-04-30 19:36 | 41.08047 | 3.52578 | 29769 ft | 488 kts | 153° |
| 2026-04-30 19:37 | 41.05166 | 3.54916 | 29100 ft | 483 kts | 152° |
| 2026-04-30 19:37 | 41.02314 | 3.57227 | 28474 ft | 478 kts | 152° |
| 2026-04-30 19:37 | 40.99522 | 3.59486 | 27837 ft | 473 kts | 152° |
| 2026-04-30 19:37 | 40.96725 | 3.61747 | 27200 ft | 469 kts | 152° |
| 2026-04-30 19:38 | 40.93950 | 3.63987 | 26565 ft | 465 kts | 152° |
| 2026-04-30 19:38 | 40.91191 | 3.66213 | 25924 ft | 461 kts | 152° |
| 2026-04-30 19:38 | 40.88458 | 3.68415 | 25286 ft | 458 kts | 152° |
| 2026-04-30 19:38 | 40.85746 | 3.70598 | 24645 ft | 455 kts | 152° |
| 2026-04-30 19:39 | 40.83053 | 3.72763 | 24002 ft | 452 kts | 152° |
| 2026-04-30 19:39 | 40.80401 | 3.74894 | 23312 ft | 449 kts | 152° |
| 2026-04-30 19:39 | 40.77742 | 3.77029 | 22640 ft | 445 kts | 152° |
| 2026-04-30 19:39 | 40.75108 | 3.79143 | 22006 ft | 439 kts | 152° |
| 2026-04-30 19:40 | 40.72509 | 3.81226 | 21399 ft | 434 kts | 151° |
| 2026-04-30 19:40 | 40.69939 | 3.83283 | 20776 ft | 429 kts | 151° |
| 2026-04-30 19:40 | 40.67402 | 3.85312 | 20165 ft | 425 kts | 151° |
| 2026-04-30 19:40 | 40.64887 | 3.87322 | 19558 ft | 420 kts | 151° |
| 2026-04-30 19:41 | 40.62401 | 3.89306 | 18969 ft | 416 kts | 151° |
| 2026-04-30 19:41 | 40.59938 | 3.91271 | 18381 ft | 412 kts | 151° |
| 2026-04-30 19:41 | 40.57500 | 3.93214 | 17703 ft | 407 kts | 151° |
| 2026-04-30 19:41 | 40.55093 | 3.95131 | 17113 ft | 401 kts | 151° |
| 2026-04-30 19:42 | 40.52717 | 3.97022 | 16530 ft | 396 kts | 151° |
| 2026-04-30 19:42 | 40.50350 | 3.98792 | 15957 ft | 389 kts | 158° |
| 2026-04-30 19:42 | 40.47868 | 3.99955 | 15589 ft | 378 kts | 166° |
| 2026-04-30 19:42 | 40.45344 | 4.00882 | 15216 ft | 377 kts | 167° |
| 2026-04-30 19:43 | 40.42811 | 4.01771 | 14825 ft | 376 kts | 167° |
| 2026-04-30 19:43 | 40.40290 | 4.02654 | 14431 ft | 373 kts | 167° |
| 2026-04-30 19:43 | 40.37791 | 4.03534 | 14054 ft | 371 kts | 167° |
| 2026-04-30 19:44 | 40.32900 | 4.05263 | 13450 ft | 351 kts | 167° |
| 2026-04-30 19:44 | 40.30581 | 4.06086 | 13257 ft | 337 kts | 167° |
| 2026-04-30 19:44 | 40.28363 | 4.06871 | 13097 ft | 324 kts | 167° |
| 2026-04-30 19:44 | 40.26230 | 4.07626 | 12922 ft | 312 kts | 167° |
| 2026-04-30 19:45 | 40.24180 | 4.08350 | 12778 ft | 300 kts | 167° |
| 2026-04-30 19:45 | 40.22184 | 4.09055 | 12378 ft | 298 kts | 167° |
| 2026-04-30 19:45 | 40.20160 | 4.09765 | 11777 ft | 304 kts | 167° |
| 2026-04-30 19:45 | 40.18114 | 4.10484 | 11287 ft | 304 kts | 167° |
| 2026-04-30 19:46 | 40.16076 | 4.11202 | 10889 ft | 301 kts | 167° |
| 2026-04-30 19:46 | 40.14088 | 4.11903 | 10543 ft | 297 kts | 167° |
| 2026-04-30 19:46 | 40.12130 | 4.12594 | 10236 ft | 285 kts | 167° |
| 2026-04-30 19:46 | 40.10250 | 4.13179 | 9890 ft | 269 kts | 175° |
| 2026-04-30 19:47 | 40.08430 | 4.13081 | 9504 ft | 258 kts | 197° |
| 2026-04-30 19:47 | 40.07336 | 4.12508 | 9332 ft | 256 kts | 212° |
| 2026-04-30 19:47 | 40.05710 | 4.10318 | 8979 ft | 254 kts | 242° |
| 2026-04-30 19:47 | 40.05084 | 4.08152 | 8714 ft | 255 kts | 249° |
| 2026-04-30 19:48 | 40.04334 | 4.06067 | 8444 ft | 254 kts | 239° |
| 2026-04-30 19:48 | 40.03347 | 4.04160 | 8300 ft | 253 kts | 232° |
| 2026-04-30 19:48 | 40.02228 | 4.02408 | 8136 ft | 248 kts | 227° |
| 2026-04-30 19:48 | 40.01057 | 4.00868 | 7911 ft | 239 kts | 223° |
| 2026-04-30 19:49 | 39.99793 | 3.99451 | 7666 ft | 241 kts | 218° |
| 2026-04-30 19:49 | 39.97010 | 3.97012 | 7182 ft | 242 kts | 209° |
| 2026-04-30 19:49 | 39.95513 | 3.96009 | 6940 ft | 242 kts | 206° |
| 2026-04-30 19:50 | 39.93963 | 3.95163 | 6710 ft | 243 kts | 202° |
| 2026-04-30 19:50 | 39.92355 | 3.94476 | 6470 ft | 243 kts | 197° |
| 2026-04-30 19:50 | 39.90679 | 3.94188 | 6219 ft | 244 kts | 180° |
| 2026-04-30 19:50 | 39.88996 | 3.94420 | 5988 ft | 242 kts | 175° |
| 2026-04-30 19:51 | 39.87320 | 3.94578 | 5763 ft | 241 kts | 177° |
| 2026-04-30 19:51 | 39.85656 | 3.94691 | 5541 ft | 239 kts | 177° |
| 2026-04-30 19:51 | 39.84006 | 3.94780 | 5321 ft | 236 kts | 177° |
| 2026-04-30 19:51 | 39.82371 | 3.94853 | 5106 ft | 234 kts | 177° |
| 2026-04-30 19:52 | 39.80744 | 3.94918 | 4886 ft | 233 kts | 177° |
| 2026-04-30 19:52 | 39.79127 | 3.94973 | 4661 ft | 232 kts | 177° |
| 2026-04-30 19:52 | 39.77517 | 3.95025 | 4433 ft | 232 kts | 177° |
| 2026-04-30 19:52 | 39.75895 | 3.95071 | 4207 ft | 232 kts | 177° |
| 2026-04-30 19:53 | 39.74304 | 3.95103 | 3975 ft | 232 kts | 177° |
| 2026-04-30 19:53 | 39.72692 | 3.95130 | 3776 ft | 232 kts | 177° |
| 2026-04-30 19:53 | 39.71080 | 3.95159 | 3549 ft | 230 kts | 177° |
| 2026-04-30 19:53 | 39.69507 | 3.95175 | 3332 ft | 223 kts | 177° |
| 2026-04-30 19:54 | 39.67967 | 3.95179 | 3108 ft | 221 kts | 177° |
| 2026-04-30 19:54 | 39.66429 | 3.95183 | 3016 ft | 221 kts | 177° |
| 2026-04-30 19:54 | 39.64883 | 3.95191 | 3011 ft | 222 kts | 177° |
| 2026-04-30 19:54 | 39.63336 | 3.95204 | 3009 ft | 221 kts | 175° |
| 2026-04-30 19:55 | 39.61878 | 3.95718 | 3008 ft | 217 kts | 150° |
| 2026-04-30 19:55 | 39.60606 | 3.96770 | 3011 ft | 217 kts | 143° |
| 2026-04-30 19:55 | 39.59377 | 3.97904 | 3006 ft | 216 kts | 142° |
| 2026-04-30 19:55 | 39.58204 | 3.99110 | 3001 ft | 215 kts | 130° |
| 2026-04-30 19:56 | 39.57530 | 4.00804 | 3010 ft | 212 kts | 105° |
| 2026-04-30 19:56 | 39.57193 | 4.02664 | 3010 ft | 212 kts | 101° |
| 2026-04-30 19:56 | 39.56915 | 4.04517 | 3006 ft | 212 kts | 100° |
| 2026-04-30 19:56 | 39.56636 | 4.06397 | 3008 ft | 211 kts | 100° |
| 2026-04-30 19:57 | 39.56362 | 4.08220 | 3011 ft | 203 kts | 100° |
| 2026-04-30 19:57 | 39.56096 | 4.10016 | 3007 ft | 201 kts | 100° |
| 2026-04-30 19:57 | 39.55831 | 4.11796 | 3008 ft | 201 kts | 100° |
| 2026-04-30 19:57 | 39.55654 | 4.13588 | 3005 ft | 201 kts | 90° |
| 2026-04-30 19:58 | 39.55903 | 4.15363 | 3014 ft | 202 kts | 68° |
| 2026-04-30 19:58 | 39.56826 | 4.16682 | 3007 ft | 205 kts | 28° |
| 2026-04-30 19:58 | 39.58251 | 4.16865 | 3017 ft | 210 kts | 356° |
| 2026-04-30 19:58 | 39.59711 | 4.16711 | 3012 ft | 211 kts | 0° |
| 2026-04-30 19:59 | 39.61173 | 4.16766 | 3014 ft | 210 kts | 8° |
| 2026-04-30 19:59 | 39.62595 | 4.17011 | 3011 ft | 199 kts | 11° |
| 2026-04-30 19:59 | 39.65208 | 4.17553 | 3018 ft | 187 kts | 12° |
| 2026-04-30 20:00 | 39.66480 | 4.17814 | 3013 ft | 188 kts | 11° |
| 2026-04-30 20:00 | 39.67765 | 4.18074 | 3015 ft | 187 kts | 11° |
| 2026-04-30 20:00 | 39.69000 | 4.18321 | 3017 ft | 172 kts | 12° |
| 2026-04-30 20:00 | 39.70158 | 4.18555 | 3024 ft | 166 kts | 12° |
| 2026-04-30 20:01 | 39.72444 | 4.19028 | 2835 ft | 167 kts | 12° |
| 2026-04-30 20:01 | 39.73585 | 4.19263 | 2593 ft | 165 kts | 12° |
| 2026-04-30 20:01 | 39.74713 | 4.19493 | 2369 ft | 164 kts | 12° |
| 2026-04-30 20:02 | 39.76961 | 4.19955 | 1932 ft | 162 kts | 14° |
| 2026-04-30 20:02 | 39.78073 | 4.20183 | 1723 ft | 161 kts | 13° |
| 2026-04-30 20:03 | 39.80288 | 4.20639 | 1284 ft | 161 kts | 12° |
| 2026-04-30 20:03 | 39.81387 | 4.20865 | 1066 ft | 159 kts | 12° |
| 2026-04-30 20:03 | 39.82476 | 4.21089 | 844 ft | 158 kts | 12° |
| 2026-04-30 20:03 | 39.83541 | 4.21306 | 590 ft | 155 kts | 11° |
| 2026-04-30 20:04 | 39.84593 | 4.21521 | 403 ft | 152 kts | 10° |
| 2026-04-30 20:04 | 39.85639 | 4.21731 | 304 ft | 149 kts | 11° |
| 2026-04-30 20:04 | 39.86427 | 4.21902 | 306 ft | 74 kts | 8° |
| 2026-04-30 20:05 | 39.86759 | 4.22003 | 309 ft | 17 kts | 15° |
| 2026-04-30 20:05 | 39.86852 | 4.22074 | 314 ft | 15 kts | 36° |
| 2026-04-30 20:05 | 39.86922 | 4.22164 | 316 ft | 0 kts | 66° |
| 2026-04-30 20:08 | 39.86924 | 4.22173 | 316 ft | 3 kts | 70° |
| 2026-04-30 20:08 | 39.86921 | 4.22210 | 314 ft | 3 kts | 124° |
| 2026-04-30 20:09 | 39.86883 | 4.22224 | 315 ft | 10 kts | 173° |
| 2026-04-30 20:09 | 39.86808 | 4.22213 | 312 ft | 12 kts | 189° |
| 2026-04-30 20:09 | 39.86603 | 4.22176 | 309 ft | 16 kts | 180° |
| 2026-04-30 20:10 | 39.86590 | 4.22333 | 311 ft | 12 kts | 19° |
| 2026-04-30 20:10 | 39.86677 | 4.22358 | 313 ft | 14 kts | 10° |
| 2026-04-30 20:10 | 39.86761 | 4.22383 | 311 ft | 7 kts | 38° |
| 2026-04-30 20:11 | 39.86769 | 4.22463 | 313 ft | 0 kts | 102° |
| 2026-04-30 20:11 | 39.86770 | 4.22309 | 311 ft | 0 kts | 290° |